createdAt,value
2023-01-28T00:02:02.064Z,0.51
2023-01-28T00:04:32.502Z,0.52
2023-01-28T00:07:01.906Z,0.50
2023-01-28T00:09:30.913Z,0.49
2023-01-28T00:12:00.314Z,0.51
2023-01-28T00:14:30.227Z,0.50
2023-01-28T00:16:59.611Z,0.53
2023-01-28T00:19:28.707Z,0.52
2023-01-28T00:21:59.496Z,0.47
2023-01-28T00:24:28.702Z,0.42
2023-01-28T00:26:58.072Z,0.42
2023-01-28T00:29:27.189Z,0.40
2023-01-28T00:31:56.557Z,0.40
2023-01-28T00:34:25.579Z,0.38
2023-01-28T00:36:58.404Z,0.39
2023-01-28T00:39:29.168Z,0.38
2023-01-28T00:41:58.577Z,0.38
2023-01-28T00:44:27.605Z,0.38
2023-01-28T00:46:57.295Z,0.39
2023-01-28T00:49:26.307Z,0.38
2023-01-28T00:51:55.783Z,0.36
2023-01-28T00:54:24.873Z,0.36
2023-01-28T00:56:56.247Z,0.37
2023-01-28T00:59:25.415Z,0.37
2023-01-28T01:01:54.729Z,0.36
2023-01-28T01:04:27.522Z,0.36
2023-01-28T01:06:56.939Z,0.36
2023-01-28T01:09:26.057Z,0.38
2023-01-28T01:11:56.769Z,0.34
2023-01-28T01:14:25.741Z,0.31
2023-01-28T01:16:55.087Z,0.31
2023-01-28T01:19:24.115Z,0.31
2023-01-28T01:21:53.429Z,0.32
2023-01-28T01:24:22.508Z,0.30
2023-01-28T01:26:53.577Z,0.30
2023-01-28T01:29:25.266Z,0.31
2023-01-28T01:31:55.463Z,0.28
2023-01-28T01:34:25.175Z,0.27
2023-01-28T01:36:54.320Z,0.25
2023-01-28T01:39:23.306Z,0.23
2023-01-28T01:41:52.845Z,0.24
2023-01-28T01:44:59.174Z,0.25
2023-01-28T01:47:37.319Z,0.24
2023-01-28T01:50:12.647Z,0.24
2023-01-28T01:52:43.840Z,0.24
2023-01-28T01:55:18.012Z,0.23
2023-01-28T01:57:49.339Z,0.23
2023-01-28T02:00:20.792Z,0.22
2023-01-28T02:02:52.321Z,0.22
2023-01-28T02:05:23.194Z,0.22
2023-01-28T02:08:16.151Z,0.22
2023-01-28T02:10:48.368Z,0.21
2023-01-28T02:13:19.465Z,0.23
2023-01-28T02:15:50.998Z,0.23
2023-01-28T02:18:20.448Z,0.23
2023-01-28T02:21:17.897Z,0.24
2023-01-28T02:24:00.762Z,0.21
2023-01-28T02:27:08.207Z,0.21
2023-01-28T02:29:45.320Z,0.20
2023-01-28T02:32:21.110Z,0.21
2023-01-28T02:34:55.768Z,0.21
2023-01-28T02:37:30.662Z,0.22
2023-01-28T02:40:07.244Z,0.21
2023-01-28T02:42:38.737Z,0.22
2023-01-28T02:45:18.737Z,0.23
2023-01-28T02:47:58.872Z,0.23
2023-01-28T02:50:39.560Z,0.23
2023-01-28T02:53:44.230Z,0.24
2023-01-28T02:56:29.695Z,0.24
2023-01-28T02:59:21.883Z,0.26
2023-01-28T03:01:58.779Z,0.25
2023-01-28T03:04:33.974Z,0.26
2023-01-28T03:07:10.336Z,0.26
2023-01-28T03:09:42.615Z,0.26
2023-01-28T03:12:32.757Z,0.27
2023-01-28T03:15:24.105Z,0.27
2023-01-28T03:18:19.670Z,0.27
2023-01-28T03:21:13.090Z,0.26
2023-01-28T03:24:07.531Z,0.27
2023-01-28T03:27:01.809Z,0.27
2023-01-28T03:29:52.117Z,0.26
2023-01-28T03:32:41.566Z,0.25
2023-01-28T03:35:32.742Z,0.27
2023-01-28T03:38:18.032Z,0.28
2023-01-28T03:40:52.065Z,0.27
2023-01-28T03:43:22.012Z,0.28
2023-01-28T03:45:52.634Z,0.28
2023-01-28T03:48:23.148Z,0.27
2023-01-28T03:50:55.980Z,0.27
2023-01-28T03:53:27.005Z,0.27
2023-01-28T03:55:58.323Z,0.27
2023-01-28T03:58:46.604Z,0.27
2023-01-28T04:01:17.736Z,0.27
2023-01-28T04:03:46.907Z,0.26
2023-01-28T04:06:21.821Z,0.26
2023-01-28T04:09:01.239Z,0.27
2023-01-28T04:11:51.780Z,0.28
2023-01-28T04:14:27.592Z,0.27
2023-01-28T04:17:10.731Z,0.27
2023-01-28T04:19:41.096Z,0.26
2023-01-28T04:22:12.647Z,0.24
2023-01-28T04:24:43.881Z,0.23
2023-01-28T04:27:13.723Z,0.23
2023-01-28T04:29:43.220Z,0.23
2023-01-28T04:32:31.306Z,0.22
2023-01-28T04:35:11.649Z,0.21
2023-01-28T04:38:01.191Z,0.23
2023-01-28T04:40:39.724Z,0.24
2023-01-28T04:43:14.937Z,0.23
2023-01-28T04:45:53.377Z,0.24
2023-01-28T04:48:32.073Z,0.25
2023-01-28T04:51:27.258Z,0.23
2023-01-28T04:54:30.108Z,0.23
2023-01-28T04:57:02.290Z,0.22
2023-01-28T04:59:32.047Z,0.22
2023-01-28T05:02:01.437Z,0.22
2023-01-28T05:04:30.963Z,0.22
2023-01-28T05:07:00.385Z,0.23
2023-01-28T05:09:36.154Z,0.23
2023-01-28T05:12:05.874Z,0.24
2023-01-28T05:14:37.447Z,0.25
2023-01-28T05:17:08.760Z,0.25
2023-01-28T05:19:38.319Z,0.25
2023-01-28T05:22:12.497Z,0.26
2023-01-28T05:24:48.881Z,0.25
2023-01-28T05:27:18.017Z,0.25
2023-01-28T05:29:47.836Z,0.26
2023-01-28T05:32:17.839Z,0.25
2023-01-28T05:34:47.638Z,0.25
2023-01-28T05:37:17.083Z,0.25
2023-01-28T05:39:48.916Z,0.24
2023-01-28T05:42:20.800Z,0.25
2023-01-28T05:44:52.021Z,0.24
2023-01-28T05:47:36.607Z,0.23
2023-01-28T05:50:25.024Z,0.23
2023-01-28T05:53:13.881Z,0.22
2023-01-28T05:55:49.827Z,0.24
2023-01-28T05:58:20.153Z,0.22
2023-01-28T06:00:49.714Z,0.23
2023-01-28T06:03:23.320Z,0.26
2023-01-28T06:05:52.921Z,0.25
2023-01-28T06:08:22.001Z,0.25
2023-01-28T06:10:52.700Z,0.26
2023-01-28T06:13:22.865Z,0.24
2023-01-28T06:16:17.161Z,0.23
2023-01-28T06:19:04.882Z,0.22
2023-01-28T06:21:34.587Z,0.21
2023-01-28T06:24:03.618Z,0.19
2023-01-28T06:26:34.783Z,0.21
2023-01-28T06:29:04.115Z,0.23
2023-01-28T06:31:33.476Z,0.21
2023-01-28T06:34:03.135Z,0.20
2023-01-28T06:36:32.910Z,0.20
2023-01-28T06:39:01.999Z,0.20
2023-01-28T06:41:31.338Z,0.20
2023-01-28T06:44:02.282Z,0.22
2023-01-28T06:46:31.720Z,0.22
2023-01-28T06:49:00.768Z,0.23
2023-01-28T06:51:30.076Z,0.21
2023-01-28T06:53:59.312Z,0.20
2023-01-28T06:56:28.736Z,0.18
2023-01-28T06:58:57.826Z,0.17
2023-01-28T07:01:28.660Z,0.18
2023-01-28T07:03:58.338Z,0.18
2023-01-28T07:06:27.655Z,0.17
2023-01-28T07:08:57.044Z,0.17
2023-01-28T07:11:26.494Z,0.18
2023-01-28T07:13:55.635Z,0.19
2023-01-28T07:16:25.056Z,0.18
2023-01-28T07:18:55.427Z,0.20
2023-01-28T07:21:24.792Z,0.22
2023-01-28T07:23:54.052Z,0.22
2023-01-28T07:26:23.711Z,0.23
2023-01-28T07:28:52.709Z,0.25
2023-01-28T07:31:22.134Z,0.27
2023-01-28T07:33:51.203Z,0.29
2023-01-28T07:36:21.977Z,0.29
2023-01-28T07:38:51.170Z,0.32
2023-01-28T07:41:20.633Z,0.32
2023-01-28T07:43:49.765Z,0.33
2023-01-28T07:46:19.508Z,0.32
2023-01-28T07:48:48.677Z,0.35
2023-01-28T07:51:17.990Z,0.36
2023-01-28T07:53:48.898Z,0.39
2023-01-28T07:56:18.244Z,0.39
2023-01-28T07:58:50.649Z,0.39
2023-01-28T08:01:20.133Z,0.42
2023-01-28T08:03:49.146Z,0.45
2023-01-28T08:06:18.559Z,0.47
2023-01-28T08:08:49.421Z,0.48
2023-01-28T08:11:18.915Z,0.50
2023-01-28T08:13:48.076Z,0.53
2023-01-28T08:16:17.542Z,0.55
2023-01-28T08:18:46.595Z,0.58
2023-01-28T08:21:16.133Z,0.59
2023-01-28T08:23:45.322Z,0.61
2023-01-28T08:26:16.022Z,0.65
2023-01-28T08:28:45.237Z,0.65
2023-01-28T08:31:14.636Z,0.66
2023-01-28T08:33:43.882Z,0.69
2023-01-28T08:36:13.196Z,0.71
2023-01-28T08:38:43.448Z,0.74
2023-01-28T08:41:12.903Z,0.76
2023-01-28T08:43:43.284Z,0.78
2023-01-28T08:46:12.705Z,0.82
2023-01-28T08:48:41.860Z,0.83
2023-01-28T08:51:11.509Z,0.86
2023-01-28T08:53:40.640Z,0.89
2023-01-28T08:56:10.104Z,0.89
2023-01-28T08:58:39.068Z,0.90
2023-01-28T09:01:09.909Z,0.94
2023-01-28T09:03:39.255Z,0.94
2023-01-28T09:06:09.106Z,0.96
2023-01-28T09:08:38.412Z,0.98
2023-01-28T09:11:08.336Z,1.02
2023-01-28T09:13:37.685Z,1.03
2023-01-28T09:16:09.583Z,1.04
2023-01-28T09:18:38.693Z,1.07
2023-01-28T09:21:09.028Z,1.11
2023-01-28T09:23:39.510Z,1.09
2023-01-28T09:26:09.408Z,1.11
2023-01-28T09:28:38.687Z,1.14
2023-01-28T09:31:11.365Z,1.15
2023-01-28T09:33:41.932Z,1.19
2023-01-28T09:36:13.153Z,1.21
2023-01-28T09:38:42.293Z,1.24
2023-01-28T09:41:27.121Z,1.30
2023-01-28T09:44:07.735Z,1.31
2023-01-28T09:46:39.434Z,1.33
2023-01-28T09:49:19.484Z,1.35
2023-01-28T09:51:53.572Z,1.39
2023-01-28T09:54:31.379Z,1.42
2023-01-28T09:57:07.091Z,1.45
2023-01-28T09:59:38.043Z,1.47
2023-01-28T10:02:31.609Z,1.53
2023-01-28T10:05:15.758Z,1.56
2023-01-28T10:07:54.999Z,1.59
2023-01-28T10:10:31.535Z,1.61
2023-01-28T10:13:18.421Z,1.63
2023-01-28T10:16:06.793Z,1.65
2023-01-28T10:18:43.367Z,1.66
2023-01-28T10:21:19.250Z,1.70
2023-01-28T10:23:57.254Z,1.74
2023-01-28T10:26:31.285Z,1.78
2023-01-28T10:29:05.310Z,1.80
2023-01-28T10:31:43.017Z,1.82
2023-01-28T10:34:13.960Z,1.81
2023-01-28T10:36:44.864Z,1.84
2023-01-28T10:39:15.474Z,1.87
2023-01-28T10:41:56.612Z,1.88
2023-01-28T10:44:34.021Z,1.91
2023-01-28T10:47:10.868Z,1.93
2023-01-28T10:49:47.225Z,1.98
2023-01-28T10:52:17.029Z,2.01
2023-01-28T10:54:46.588Z,1.99
2023-01-28T10:57:20.102Z,2.00
2023-01-28T10:59:50.960Z,1.99
2023-01-28T11:02:27.965Z,1.97
2023-01-28T11:05:07.243Z,2.03
2023-01-28T11:07:37.221Z,2.01
2023-01-28T11:10:32.167Z,2.01
2023-01-28T11:13:02.936Z,2.00
2023-01-28T11:15:33.119Z,2.05
2023-01-28T11:18:04.197Z,2.08
2023-01-28T11:20:39.600Z,2.07
2023-01-28T11:23:18.993Z,2.05
2023-01-28T11:25:48.429Z,2.05
2023-01-28T11:28:22.009Z,2.08
2023-01-28T11:30:54.990Z,2.06
2023-01-28T11:33:29.584Z,2.08
2023-01-28T11:36:08.770Z,2.09
2023-01-28T11:38:48.432Z,2.09
2023-01-28T11:41:18.221Z,2.11
2023-01-28T11:43:47.212Z,2.10
2023-01-28T11:46:32.911Z,2.11
2023-01-28T11:49:12.186Z,2.15
2023-01-28T11:51:49.404Z,2.15
2023-01-28T11:54:34.567Z,2.17
2023-01-28T11:57:19.140Z,2.19
2023-01-28T12:00:08.807Z,2.25
2023-01-28T12:02:52.400Z,2.22
2023-01-28T12:05:47.885Z,2.26
2023-01-28T12:08:25.314Z,2.25
2023-01-28T12:11:13.533Z,2.26
2023-01-28T12:13:56.807Z,2.32
2023-01-28T12:16:52.101Z,2.33
2023-01-28T12:20:00.332Z,2.34
2023-01-28T12:23:05.031Z,2.35
2023-01-28T12:25:49.244Z,2.38
2023-01-28T12:28:31.610Z,2.38
2023-01-28T12:31:20.946Z,2.39
2023-01-28T12:34:03.627Z,2.41
2023-01-28T12:36:45.544Z,2.40
2023-01-28T12:39:27.600Z,2.39
2023-01-28T12:42:07.014Z,2.39
2023-01-28T12:44:42.506Z,2.38
2023-01-28T12:47:18.352Z,2.38
2023-01-28T12:49:53.309Z,2.40
2023-01-28T12:52:29.417Z,2.40
2023-01-28T12:55:07.759Z,2.39
2023-01-28T12:57:40.255Z,2.40
2023-01-28T13:00:25.803Z,2.38
2023-01-28T13:03:03.837Z,2.38
2023-01-28T13:05:40.864Z,2.38
2023-01-28T13:08:18.763Z,2.38
2023-01-28T13:10:49.179Z,2.38
2023-01-28T13:13:28.889Z,2.42
2023-01-28T13:15:58.682Z,2.42
2023-01-28T13:18:35.057Z,2.42
2023-01-28T13:21:06.339Z,2.43
2023-01-28T13:23:41.633Z,2.47
2023-01-28T13:26:28.509Z,2.45
2023-01-28T13:29:22.397Z,2.44
2023-01-28T13:31:53.729Z,2.44
2023-01-28T13:34:44.721Z,2.45
2023-01-28T13:37:30.294Z,2.50
2023-01-28T13:40:05.265Z,2.51
2023-01-28T13:42:36.553Z,2.50
2023-01-28T13:45:27.138Z,2.50
2023-01-28T13:48:02.603Z,2.49
2023-01-28T13:50:40.953Z,2.50
2023-01-28T13:53:25.613Z,2.47
2023-01-28T13:55:59.601Z,2.49
2023-01-28T13:59:02.167Z,2.49
2023-01-28T14:02:01.094Z,2.49
2023-01-28T14:05:05.891Z,2.47
2023-01-28T14:08:16.421Z,2.44
2023-01-28T14:10:58.170Z,2.44
2023-01-28T14:13:56.958Z,2.44
2023-01-28T14:16:40.138Z,2.43
2023-01-28T14:19:14.810Z,2.41
2023-01-28T14:21:44.086Z,2.38
2023-01-28T14:24:18.045Z,2.36
2023-01-28T14:26:57.145Z,2.33
2023-01-28T14:29:44.260Z,2.31
2023-01-28T14:32:17.327Z,2.28
2023-01-28T14:34:49.383Z,2.25
2023-01-28T14:37:22.163Z,2.26
2023-01-28T14:39:54.972Z,2.25
2023-01-28T14:42:27.337Z,2.21
2023-01-28T14:45:09.233Z,2.16
2023-01-28T14:48:00.373Z,2.15
2023-01-28T14:50:49.170Z,2.07
2023-01-28T14:53:49.762Z,2.06
2023-01-28T14:56:29.351Z,2.01
2023-01-28T14:59:02.770Z,1.96
2023-01-28T15:01:33.428Z,1.92
2023-01-28T15:04:02.666Z,1.90
2023-01-28T15:06:37.711Z,1.89
2023-01-28T15:09:11.284Z,1.84
2023-01-28T15:11:44.299Z,1.83
2023-01-28T15:14:21.456Z,1.76
2023-01-28T15:16:52.823Z,1.74
2023-01-28T15:19:28.790Z,1.73
2023-01-28T15:22:02.478Z,1.73
2023-01-28T15:24:33.637Z,1.68
2023-01-28T15:27:03.973Z,1.61
2023-01-28T15:29:36.514Z,1.56
2023-01-28T15:32:07.427Z,1.52
2023-01-28T15:34:38.189Z,1.52
2023-01-28T15:37:13.459Z,1.51
2023-01-28T15:39:42.664Z,1.49
2023-01-28T15:42:21.746Z,1.46
2023-01-28T15:44:52.699Z,1.49
2023-01-28T15:47:26.339Z,1.42
2023-01-28T15:49:58.386Z,1.41
2023-01-28T15:52:36.816Z,1.37
2023-01-28T15:55:08.275Z,1.35
2023-01-28T15:57:39.683Z,1.33
2023-01-28T16:00:20.130Z,1.32
2023-01-28T16:02:50.762Z,1.30
2023-01-28T16:05:33.004Z,1.31
2023-01-28T16:08:10.078Z,1.27
2023-01-28T16:10:39.575Z,1.28
2023-01-28T16:13:17.662Z,1.24
2023-01-28T16:15:48.565Z,1.23
2023-01-28T16:18:28.153Z,1.27
2023-01-28T16:20:57.719Z,1.22
2023-01-28T16:23:30.145Z,1.19
2023-01-28T16:26:04.346Z,1.19
2023-01-28T16:28:34.051Z,1.18
2023-01-28T16:31:03.402Z,1.13
2023-01-28T16:33:32.871Z,1.13
2023-01-28T16:36:08.317Z,1.10
2023-01-28T16:38:39.649Z,1.08
2023-01-28T16:41:26.090Z,1.08
2023-01-28T16:43:55.536Z,1.04
2023-01-28T16:46:27.772Z,1.00
2023-01-28T16:48:57.203Z,1.00
2023-01-28T16:51:26.957Z,1.00
2023-01-28T16:53:58.364Z,1.02
2023-01-28T16:56:46.272Z,0.99
2023-01-28T16:59:19.378Z,0.96
2023-01-28T17:01:51.115Z,0.93
2023-01-28T17:04:20.750Z,0.93
2023-01-28T17:06:50.389Z,0.91
2023-01-28T17:09:22.177Z,0.90
2023-01-28T17:11:52.126Z,0.90
2023-01-28T17:14:21.402Z,0.86
2023-01-28T17:16:50.765Z,0.85
2023-01-28T17:19:20.120Z,0.83
2023-01-28T17:21:49.263Z,0.71
2023-01-28T17:24:19.135Z,0.68
2023-01-28T17:26:52.592Z,0.59
2023-01-28T17:29:22.423Z,0.60
2023-01-28T17:31:51.628Z,0.60
2023-01-28T17:34:20.971Z,0.57
2023-01-28T17:36:50.121Z,0.49
2023-01-28T17:39:19.515Z,0.46
2023-01-28T17:41:52.563Z,0.39
2023-01-28T17:44:22.591Z,0.38
2023-01-28T17:46:51.623Z,0.32
2023-01-28T17:49:21.032Z,0.31
2023-01-28T17:51:50.206Z,0.28
2023-01-28T17:54:20.021Z,0.27
2023-01-28T17:56:50.414Z,0.24
2023-01-28T17:59:21.358Z,0.23
2023-01-28T18:01:50.823Z,0.17
2023-01-28T18:04:20.135Z,0.17
2023-01-28T18:06:51.750Z,0.16
2023-01-28T18:09:21.407Z,0.16
2023-01-28T18:11:51.807Z,0.14
2023-01-28T18:14:21.485Z,0.13
2023-01-28T18:16:50.489Z,0.11
2023-01-28T18:19:19.889Z,0.09
2023-01-28T18:21:53.524Z,0.07
2023-01-28T18:24:24.693Z,0.01
2023-01-28T18:26:58.311Z,-0.01
2023-01-28T18:29:28.893Z,0.00
2023-01-28T18:31:59.763Z,0.02
2023-01-28T18:34:31.893Z,0.02
2023-01-28T18:37:03.486Z,-0.03
2023-01-28T18:39:33.053Z,-0.05
2023-01-28T18:42:03.876Z,-0.05
2023-01-28T18:44:33.465Z,-0.07
2023-01-28T18:47:02.531Z,-0.08
2023-01-28T18:49:31.895Z,-0.10
2023-01-28T18:52:01.705Z,-0.12
2023-01-28T18:54:31.234Z,-0.10
2023-01-28T18:57:00.767Z,-0.15
2023-01-28T18:59:31.523Z,-0.18
2023-01-28T19:02:00.666Z,-0.21
2023-01-28T19:04:30.085Z,-0.22
2023-01-28T19:06:59.456Z,-0.24
2023-01-28T19:09:28.892Z,-0.18
2023-01-28T19:11:57.904Z,-0.17
2023-01-28T19:14:27.347Z,-0.20
2023-01-28T19:16:58.541Z,-0.22
2023-01-28T19:19:28.486Z,-0.21
2023-01-28T19:21:58.709Z,-0.19
2023-01-28T19:24:28.804Z,-0.18
2023-01-28T19:26:59.211Z,-0.16
2023-01-28T19:29:29.814Z,-0.18
2023-01-28T19:32:00.482Z,-0.17
2023-01-28T19:34:30.291Z,-0.15
2023-01-28T19:36:59.538Z,-0.15
2023-01-28T19:39:29.050Z,-0.12
2023-01-28T19:42:02.423Z,-0.09
2023-01-28T19:44:32.828Z,-0.10
2023-01-28T19:47:05.743Z,-0.08
2023-01-28T19:49:37.284Z,-0.06
2023-01-28T19:52:09.360Z,-0.04
2023-01-28T19:54:38.840Z,-0.04
2023-01-28T19:57:07.851Z,-0.02
2023-01-28T19:59:37.315Z,-0.01
2023-01-28T20:02:08.043Z,0.03
2023-01-28T20:04:42.783Z,0.05
2023-01-28T20:07:17.178Z,0.06
2023-01-28T20:09:49.831Z,0.07
2023-01-28T20:12:18.927Z,0.08
2023-01-28T20:14:48.549Z,0.09
2023-01-28T20:17:19.236Z,0.12
2023-01-28T20:19:49.455Z,0.14
2023-01-28T20:22:18.502Z,0.14
2023-01-28T20:24:49.149Z,0.17
2023-01-28T20:27:19.693Z,0.20
2023-01-28T20:29:49.480Z,0.23
2023-01-28T20:32:23.205Z,0.27
2023-01-28T20:34:53.329Z,0.28
2023-01-28T20:37:23.954Z,0.33
2023-01-28T20:39:53.419Z,0.35
2023-01-28T20:42:23.020Z,0.36
2023-01-28T20:44:52.567Z,0.39
2023-01-28T20:47:23.353Z,0.42
2023-01-28T20:49:53.587Z,0.45
2023-01-28T20:52:22.588Z,0.48
2023-01-28T20:54:52.632Z,0.47
2023-01-28T20:57:21.877Z,0.44
2023-01-28T20:59:51.345Z,0.45
2023-01-28T21:02:22.360Z,0.46
2023-01-28T21:04:51.986Z,0.45
2023-01-28T21:07:21.201Z,0.48
2023-01-28T21:09:50.814Z,0.47
2023-01-28T21:12:20.005Z,0.48
2023-01-28T21:14:50.430Z,0.50
2023-01-28T21:17:19.402Z,0.48
2023-01-28T21:19:50.180Z,0.49
2023-01-28T21:22:20.248Z,0.51
2023-01-28T21:24:51.371Z,0.52
2023-01-28T21:27:20.761Z,0.55
2023-01-28T21:29:50.136Z,0.57
2023-01-28T21:32:22.945Z,0.62
2023-01-28T21:34:58.341Z,0.69
2023-01-28T21:37:27.791Z,0.71
2023-01-28T21:39:57.511Z,0.72
2023-01-28T21:42:26.748Z,0.73
2023-01-28T21:44:56.406Z,0.76
2023-01-28T21:47:26.192Z,0.80
2023-01-28T21:49:58.122Z,0.86
2023-01-28T21:52:27.244Z,0.87
2023-01-28T21:54:56.509Z,0.86
2023-01-28T21:57:25.882Z,0.91
2023-01-28T21:59:54.131Z,0.93
2023-01-28T22:02:24.096Z,0.94
2023-01-28T22:04:53.597Z,0.99
2023-01-28T22:07:23.988Z,0.99
2023-01-28T22:09:53.515Z,1.04
2023-01-28T22:12:22.964Z,1.12
2023-01-28T22:14:52.447Z,1.16
2023-01-28T22:17:21.533Z,1.17
2023-01-28T22:19:52.223Z,1.18
2023-01-28T22:22:21.278Z,1.15
2023-01-28T22:24:52.160Z,1.18
2023-01-28T22:27:21.150Z,1.17
2023-01-28T22:29:53.797Z,1.18
2023-01-28T22:32:22.893Z,1.23
2023-01-28T22:34:52.137Z,1.26
2023-01-28T22:37:21.338Z,1.23
2023-01-28T22:39:53.903Z,1.25
2023-01-28T22:42:25.145Z,1.22
2023-01-28T22:44:54.442Z,1.21
2023-01-28T22:47:23.553Z,1.26
2023-01-28T22:49:52.821Z,1.27
2023-01-28T22:52:21.940Z,1.25
2023-01-28T22:54:52.695Z,1.21
2023-01-28T22:57:21.857Z,1.20
2023-01-28T22:59:59.496Z,1.19
2023-01-28T23:02:29.730Z,1.17
2023-01-28T23:04:59.158Z,1.16
2023-01-28T23:07:28.183Z,1.15
2023-01-28T23:09:59.141Z,1.11
2023-01-28T23:12:28.233Z,1.17
2023-01-28T23:15:14.814Z,1.14
2023-01-28T23:18:01.087Z,1.09
2023-01-28T23:20:47.907Z,1.00
2023-01-28T23:23:35.851Z,0.93
2023-01-28T23:26:07.208Z,0.98
2023-01-28T23:28:36.430Z,0.98
2023-01-28T23:31:06.366Z,0.87
2023-01-28T23:33:37.034Z,0.89
2023-01-28T23:36:06.904Z,0.84
2023-01-28T23:38:36.064Z,0.77
2023-01-28T23:41:06.903Z,0.81
2023-01-28T23:43:36.009Z,0.82
2023-01-28T23:46:05.473Z,0.81
2023-01-28T23:48:34.620Z,0.82
2023-01-28T23:51:06.863Z,0.78
2023-01-28T23:53:36.010Z,0.74
2023-01-28T23:56:09.412Z,0.72
2023-01-28T23:58:43.692Z,0.71
